Time;durP1;ratioP1;P1;durP2;ratioP2;P2;SDS_P1;SDS_P2;PMS_P1;PMS_P2;Temp;Humidity;BMP_temperature;BMP_pressure;BME280_temperature;BME280_humidity;BME280_pressure;Samples;Min_cycle;Max_cycle;Signal;HPM_P1;HPM_P2
2022/01/11 00:02:01;;;;;;;27.15;10.18;;;;;;;7.74;83.36;100916.47;5003713;28;20053;-58
2022/01/11 00:04:30;;;;;;;25.05;10.02;;;;;;;7.74;83.51;100916.47;5003508;28;20046;-56
2022/01/11 00:06:58;;;;;;;25.10;8.82;;;;;;;7.74;83.37;100912.22;5002303;28;20095;-55
2022/01/11 00:09:39;;;;;;;27.58;8.38;;;;;;;7.78;84.43;100918.28;5002991;28;20054;-53
2022/01/11 00:12:08;;;;;;;24.60;8.80;;;;;;;7.77;83.11;100921.72;4985472;28;20042;-53
2022/01/11 00:14:35;;;;;;;22.42;8.65;;;;;;;7.77;83.30;100922.56;5002100;28;21351;-58
2022/01/11 00:17:02;;;;;;;28.23;10.50;;;;;;;7.77;84.35;100916.56;5005533;28;20045;-58
2022/01/11 00:19:29;;;;;;;26.70;10.25;;;;;;;7.79;83.67;100925.19;5001760;28;20052;-58
2022/01/11 00:21:57;;;;;;;23.92;9.63;;;;;;;7.80;83.91;100911.47;5002565;28;20053;-56
2022/01/11 00:24:29;;;;;;;25.85;9.73;;;;;;;7.78;83.66;100913.13;5005351;28;20470;-55
2022/01/11 00:26:59;;;;;;;19.80;8.52;;;;;;;7.78;84.54;100918.28;5001339;28;20054;-55
2022/01/11 00:29:26;;;;;;;;;;;;;;;7.70;84.98;100918.97;5005667;28;20058;-58
2022/01/11 00:31:54;;;;;;;21.60;9.13;;;;;;;7.76;84.36;100930.25;5000152;28;19929;-54
2022/01/11 00:34:22;;;;;;;21.60;8.68;;;;;;;7.79;84.14;100930.34;5001069;28;20046;-53
2022/01/11 00:36:49;;;;;;;18.77;7.00;;;;;;;7.79;84.49;100926.06;5001589;28;20436;-56
2022/01/11 00:39:16;;;;;;;20.48;8.68;;;;;;;7.81;83.61;100926.09;5005211;28;20050;-60
2022/01/11 00:41:43;;;;;;;22.58;8.93;;;;;;;7.81;84.31;100923.53;5003022;28;20042;-55
2022/01/11 00:44:11;;;;;;;23.23;9.38;;;;;;;7.83;84.04;100927.00;5004371;28;20050;-54
2022/01/11 00:46:40;;;;;;;22.48;8.88;;;;;;;7.83;84.18;100924.41;5006207;28;20050;-59
2022/01/11 00:49:07;;;;;;;23.83;9.23;;;;;;;7.83;83.40;100924.41;4998332;28;20050;-51
2022/01/11 00:51:34;;;;;;;22.88;9.20;;;;;;;7.85;83.68;100927.91;5004523;28;20050;-57
2022/01/11 00:54:01;;;;;;;22.30;9.35;;;;;;;7.86;84.68;100932.22;5006299;28;20486;-59
2022/01/11 00:56:27;;;;;;;21.60;7.80;;;;;;;7.83;84.75;100929.56;5005593;28;20041;-56
2022/01/11 00:58:54;;;;;;;20.50;8.75;;;;;;;7.86;83.59;100919.34;4999655;28;20046;-58
2022/01/11 01:01:21;;;;;;;20.73;8.60;;;;;;;7.86;84.31;100927.06;5002612;28;20085;-58
2022/01/11 01:03:48;;;;;;;20.95;9.27;;;;;;;7.88;83.83;100937.44;5004409;28;20107;-62
2022/01/11 01:06:15;;;;;;;19.17;8.38;;;;;;;7.87;83.75;100933.97;5000238;28;20111;-54
2022/01/11 01:08:41;;;;;;;25.60;8.68;;;;;;;7.90;84.30;100936.63;5006816;28;20042;-59
2022/01/11 01:11:10;;;;;;;20.92;8.77;;;;;;;7.89;83.43;100936.59;5000700;28;20056;-60
2022/01/11 01:13:37;;;;;;;19.67;7.40;;;;;;;7.88;83.60;100930.56;5003502;28;20411;-55
2022/01/11 01:16:04;;;;;;;21.55;9.27;;;;;;;7.90;83.59;100936.63;5003322;28;20092;-53
2022/01/11 01:18:33;;;;;;;20.88;7.72;;;;;;;7.91;84.10;100940.94;5000356;28;20138;-56
2022/01/11 01:21:00;;;;;;;22.02;8.30;;;;;;;7.92;83.09;100934.97;5007133;28;20046;-58
2022/01/11 01:23:27;;;;;;;19.17;8.23;;;;;;;7.92;83.23;100942.69;4999042;28;20065;-55
2022/01/11 01:25:55;;;;;;;25.25;9.52;;;;;;;7.92;84.56;100937.53;5006851;28;20046;-57
2022/01/11 01:28:21;;;;;;;18.38;8.48;;;;;;;7.95;83.43;100937.63;5000828;28;20068;-57
2022/01/11 01:30:49;;;;;;;19.33;8.23;;;;;;;7.95;83.52;100939.31;5003878;28;20050;-57
2022/01/11 01:33:16;;;;;;;19.35;8.05;;;;;;;7.95;83.33;100942.78;5001029;28;20541;-56
2022/01/11 01:35:48;;;;;;;20.60;8.27;;;;;;;7.96;83.84;100949.66;5005337;28;20054;-57
2022/01/11 01:38:21;;;;;;;22.50;9.05;;;;;;;7.97;84.03;100941.09;5005607;28;20034;-57
2022/01/11 01:40:49;;;;;;;18.33;8.18;;;;;;;7.97;83.90;100951.41;5001900;28;20049;-55
2022/01/11 01:43:16;;;;;;;19.05;8.45;;;;;;;8.00;83.47;100949.75;5003490;28;20045;-57
2022/01/11 01:45:44;;;;;;;21.02;7.25;;;;;;;7.97;83.54;100951.41;5000943;28;20141;-56
2022/01/11 01:48:13;;;;;;;13.63;5.75;;;;;;;7.99;84.60;100948.88;5001228;28;20486;-60
2022/01/11 01:50:39;;;;;;;19.08;8.07;;;;;;;8.01;83.80;100951.47;5004398;28;20041;-59
2022/01/11 01:53:10;;;;;;;25.77;8.63;;;;;;;8.01;84.30;100956.63;5000914;28;20057;-57
2022/01/11 01:55:40;;;;;;;22.65;10.13;;;;;;;8.01;84.31;100961.81;5002052;28;20073;-52
2022/01/11 01:58:07;;;;;;;23.73;8.55;;;;;;;8.02;83.65;100964.41;5000186;28;20050;-62
2022/01/11 02:00:40;;;;;;;23.35;8.02;;;;;;;8.02;83.35;100958.38;5001609;28;20457;-63
2022/01/11 02:03:12;;;;;;;21.45;9.05;;;;;;;8.04;83.52;100967.03;5002501;28;20088;-54
2022/01/11 02:05:40;;;;;;;23.50;9.43;;;;;;;8.03;84.32;100968.72;5002421;28;20137;-55
2022/01/11 02:08:08;;;;;;;22.23;9.07;;;;;;;8.07;82.74;100972.28;5000945;28;20042;-60
2022/01/11 02:10:37;;;;;;;27.83;10.40;;;;;;;8.07;84.03;100972.28;5002753;28;20034;-59
2022/01/11 02:13:05;;;;;;;20.92;8.73;;;;;;;8.05;84.10;100979.97;5005429;28;20042;-55
2022/01/11 02:15:32;;;;;;;17.05;6.22;;;;;;;8.05;83.49;100979.09;4997148;28;20633;-57
2022/01/11 02:18:22;;;;;;;28.70;10.07;;;;;;;8.06;83.92;100980.81;5006291;28;20042;-55
2022/01/11 02:20:50;;;;;;;23.15;8.88;;;;;;;8.11;84.13;100979.25;5000971;28;20046;-59
2022/01/11 02:23:19;;;;;;;22.88;8.68;;;;;;;8.12;83.91;100978.41;4998415;28;20080;-56
2022/01/11 02:25:46;;;;;;;23.55;9.13;;;;;;;8.12;83.49;100986.13;5003574;28;20482;-59
2022/01/11 02:28:15;;;;;;;18.33;7.35;;;;;;;8.12;84.19;100986.13;4998054;28;20038;-58
2022/01/11 02:30:42;;;;;;;21.95;7.72;;;;;;;8.12;83.61;100983.56;5002022;28;20056;-59
2022/01/11 02:33:22;;;;;;;16.25;7.35;;;;;;;8.14;83.83;100993.91;4998967;28;20108;-57
2022/01/11 02:35:50;;;;;;;17.60;7.32;;;;;;;8.15;83.75;100996.53;5001937;28;20139;-58
2022/01/11 02:38:17;;;;;;;16.10;5.30;;;;;;;8.16;84.13;100993.09;5002035;28;20644;-59
2022/01/11 02:40:44;;;;;;;16.02;7.00;;;;;;;8.15;82.80;100988.78;5008105;28;20104;-57
2022/01/11 02:43:11;;;;;;;16.75;6.82;;;;;;;8.17;83.88;100989.69;5008972;28;20045;-56
2022/01/11 02:45:37;;;;;;;15.73;8.27;;;;;;;8.17;82.99;101000.00;5003565;28;20116;-59
2022/01/11 02:48:04;;;;;;;16.38;6.70;;;;;;;8.18;83.33;100996.56;5007893;28;20654;-55
2022/01/11 02:50:31;;;;;;;17.77;8.63;;;;;;;8.18;83.04;100996.56;5006615;28;20046;-57
2022/01/11 02:52:58;;;;;;;16.80;6.53;;;;;;;8.15;83.39;100991.38;5009890;28;20493;-54
2022/01/11 02:55:24;;;;;;;19.40;7.40;;;;;;;8.19;83.61;100992.28;5004611;28;20046;-58
2022/01/11 02:57:51;;;;;;;19.52;7.18;;;;;;;8.19;83.86;100997.47;5004964;28;20099;-59
2022/01/11 03:00:21;;;;;;;21.08;6.97;;;;;;;8.17;83.68;100996.56;5007805;28;20046;-53
2022/01/11 03:02:49;;;;;;;15.27;6.78;;;;;;;8.18;83.80;100996.56;5007319;28;20050;-62
2022/01/11 03:05:16;;;;;;;18.95;7.88;;;;;;;8.15;83.68;100996.53;5008681;28;20060;-60
2022/01/11 03:07:43;;;;;;;19.42;7.40;;;;;;;8.14;83.17;100999.94;5005179;28;20452;-54
2022/01/11 03:10:27;;;;;;;18.02;7.38;;;;;;;8.18;83.04;101012.06;5007241;28;20054;-56
2022/01/11 03:12:53;;;;;;;18.83;6.95;;;;;;;8.13;83.62;101005.94;5003271;28;20053;-57
2022/01/11 03:15:20;;;;;;;18.08;6.95;;;;;;;8.15;83.36;101012.00;5007865;28;20100;-56
2022/01/11 03:17:47;;;;;;;20.90;7.75;;;;;;;8.15;83.35;101012.00;5003719;28;20062;-59
2022/01/11 03:20:14;;;;;;;16.75;6.88;;;;;;;8.14;83.72;101017.13;5003233;28;20417;-57
2022/01/11 03:22:40;;;;;;;14.93;5.80;;;;;;;8.16;83.85;101018.03;5006153;28;20096;-55
2022/01/11 03:25:07;;;;;;;17.05;5.80;;;;;;;8.18;83.38;101024.97;5005428;28;20613;-56
2022/01/11 03:27:34;;;;;;;20.98;8.40;;;;;;;8.17;83.75;101025.81;5003306;28;20062;-54
2022/01/11 03:30:01;;;;;;;16.83;5.72;;;;;;;8.19;84.06;101024.16;5005592;28;20617;-58
2022/01/11 03:32:28;;;;;;;18.27;7.07;;;;;;;8.17;83.18;101025.81;5004774;28;20097;-55
2022/01/11 03:35:05;;;;;;;19.88;7.95;;;;;;;8.20;83.78;101019.84;5004618;28;20049;-56
2022/01/11 03:37:32;;;;;;;17.13;7.22;;;;;;;8.18;84.00;101017.22;5003544;28;20054;-56
2022/01/11 03:39:58;;;;;;;17.30;7.38;;;;;;;8.16;83.28;101024.06;5008198;28;20112;-56
2022/01/11 03:42:25;;;;;;;20.20;6.72;;;;;;;8.14;83.58;101022.31;5001923;28;20054;-56
2022/01/11 03:44:54;;;;;;;14.57;6.35;;;;;;;8.16;84.00;101024.06;5007533;28;20049;-58
2022/01/11 03:47:20;;;;;;;16.48;6.57;;;;;;;8.17;83.46;101030.97;5004180;28;20081;-53
2022/01/11 03:49:47;;;;;;;16.98;6.38;;;;;;;8.17;83.05;101025.81;5002982;28;20050;-58
2022/01/11 03:52:13;;;;;;;23.63;8.18;;;;;;;8.18;84.16;101016.38;5006245;28;20046;-55
2022/01/11 03:55:02;;;;;;;19.33;7.30;;;;;;;8.20;83.94;101025.88;5004431;28;20065;-59
2022/01/11 03:57:28;;;;;;;16.30;6.68;;;;;;;8.23;83.77;101023.38;5002752;28;20042;-55
2022/01/11 03:59:56;;;;;;;14.88;6.28;;;;;;;8.21;82.90;101030.19;5001795;28;20177;-55
2022/01/11 04:02:24;;;;;;;16.60;6.57;;;;;;;8.25;84.07;101027.69;5005522;28;20042;-58
2022/01/11 04:04:52;;;;;;;15.15;5.65;;;;;;;8.25;83.23;101028.59;5006034;28;20053;-58
2022/01/11 04:07:22;;;;;;;20.30;6.32;;;;;;;8.22;83.73;101029.38;5003622;28;20590;-52
2022/01/11 04:09:50;;;;;;;15.93;6.68;;;;;;;8.25;82.95;101038.91;5008097;28;20100;-58
2022/01/11 04:12:17;;;;;;;18.88;7.68;;;;;;;8.26;83.81;101039.75;4999979;28;20049;-58
2022/01/11 04:14:44;;;;;;;15.32;6.93;;;;;;;8.28;83.10;101035.50;5005045;28;20092;-56
2022/01/11 04:17:12;;;;;;;16.52;6.78;;;;;;;8.29;83.60;101045.88;5003456;28;20046;-54
2022/01/11 04:19:38;;;;;;;14.30;7.80;;;;;;;8.30;83.00;101036.41;5005562;28;20046;-52
2022/01/11 04:22:05;;;;;;;11.90;5.30;;;;;;;8.32;83.03;101034.75;5004295;28;20042;-60
2022/01/11 04:24:32;;;;;;;12.52;4.65;;;;;;;8.32;83.36;101045.06;5001392;28;20057;-56
2022/01/11 04:26:59;;;;;;;11.05;5.03;;;;;;;8.32;83.41;101051.13;5006817;28;20045;-60
2022/01/11 04:29:25;;;;;;;11.30;6.13;;;;;;;8.32;83.56;101045.97;5004853;28;20116;-56
2022/01/11 04:31:52;;;;;;;12.23;5.70;;;;;;;8.33;83.75;101046.81;5006174;28;20069;-55
2022/01/11 04:34:21;;;;;;;13.15;5.13;;;;;;;8.33;83.58;101052.84;5001696;28;20053;-59
2022/01/11 04:36:48;;;;;;;15.60;6.30;;;;;;;8.34;83.46;101053.72;5000343;28;20061;-56
2022/01/11 04:39:15;;;;;;;16.15;7.13;;;;;;;8.36;82.90;101057.22;5005176;28;20058;-54
2022/01/11 04:41:42;;;;;;;19.42;8.35;;;;;;;8.35;82.91;101055.47;5000250;28;20104;-58
2022/01/11 04:44:09;;;;;;;14.35;6.45;;;;;;;8.35;82.55;101065.81;5004749;28;20053;-51
2022/01/11 04:46:35;;;;;;;12.55;6.07;;;;;;;8.37;82.90;101058.94;4997463;28;20050;-59
2022/01/11 04:49:03;;;;;;;13.40;5.93;;;;;;;8.36;83.40;101062.38;5005942;28;20053;-58
2022/01/11 04:51:30;;;;;;;10.25;5.13;;;;;;;8.38;82.82;101060.72;5001354;28;20056;-59
2022/01/11 04:53:56;;;;;;;14.57;5.90;;;;;;;8.40;82.66;101065.88;4999560;28;20096;-56
2022/01/11 04:56:23;;;;;;;12.55;5.47;;;;;;;8.36;83.13;101067.53;5002018;28;20042;-55
2022/01/11 04:58:50;;;;;;;10.45;5.10;;;;;;;8.39;83.67;101065.03;5000738;28;20065;-57
2022/01/11 05:01:17;;;;;;;16.15;7.05;;;;;;;8.40;82.63;101066.75;5008085;28;20037;-55
2022/01/11 05:03:45;;;;;;;19.52;7.28;;;;;;;8.42;83.58;101072.84;5000593;28;20147;-60
2022/01/11 05:06:11;;;;;;;15.68;6.95;;;;;;;8.45;82.56;101072.88;5004911;28;20097;-59
2022/01/11 05:08:38;;;;;;;16.17;6.75;;;;;;;8.45;82.67;101080.63;4999433;28;20891;-55
2022/01/11 05:11:06;;;;;;;16.25;7.00;;;;;;;8.47;82.49;101086.72;5004981;28;20042;-59
2022/01/11 05:13:34;;;;;;;18.23;6.55;;;;;;;8.47;82.76;101081.56;5001769;28;20429;-60
2022/01/11 05:16:02;;;;;;;16.83;6.93;;;;;;;8.49;83.37;101095.34;5000854;28;20037;-58
2022/01/11 05:18:30;;;;;;;23.08;8.07;;;;;;;8.46;83.06;101089.28;5001771;28;20498;-57
2022/01/11 05:20:56;;;;;;;22.35;7.95;;;;;;;8.48;83.46;101092.78;5000840;28;20045;-54
2022/01/11 05:23:23;;;;;;;18.25;6.93;;;;;;;8.51;83.16;101099.72;5003097;28;20702;-58
2022/01/11 05:25:50;;;;;;;23.30;9.68;;;;;;;8.46;82.84;101095.31;4999707;28;20054;-59
2022/01/11 05:28:16;;;;;;;19.70;8.40;;;;;;;8.49;83.30;101104.84;5002228;28;20588;-57
2022/01/11 05:30:43;;;;;;;20.38;8.85;;;;;;;8.47;83.14;101094.47;5001373;28;20053;-56
2022/01/11 05:33:09;;;;;;;16.17;6.85;;;;;;;8.46;83.00;101105.66;5002931;28;20501;-57
2022/01/11 05:35:36;;;;;;;17.48;7.35;;;;;;;8.47;82.93;101107.38;5001870;28;20498;-58
2022/01/11 05:38:08;;;;;;;16.63;6.47;;;;;;;8.47;82.77;101102.22;4998637;28;20061;-55
2022/01/11 05:40:35;;;;;;;13.30;4.72;;;;;;;8.47;83.20;101112.53;5006102;28;20739;-57
2022/01/11 05:43:02;;;;;;;16.23;7.32;;;;;;;8.45;83.07;101114.19;5001386;28;20183;-59
2022/01/11 05:45:28;;;;;;;12.77;5.97;;;;;;;8.45;83.27;101114.19;5003558;28;20054;-58
2022/01/11 05:47:56;;;;;;;14.00;6.00;;;;;;;8.45;82.64;101119.38;5002898;28;20129;-57
2022/01/11 05:50:23;;;;;;;16.17;6.40;;;;;;;8.45;83.36;101129.69;5005024;28;20057;-57
2022/01/11 05:52:50;;;;;;;11.00;6.20;;;;;;;8.47;83.31;101122.00;4998116;28;20046;-53
2022/01/11 05:55:17;;;;;;;16.33;6.15;;;;;;;8.46;83.18;101122.84;5005435;28;20041;-52
2022/01/11 05:57:44;;;;;;;18.77;7.60;;;;;;;8.45;82.72;101126.25;5003538;28;20405;-54
2022/01/11 06:00:15;;;;;;;15.00;4.60;;;;;;;8.45;82.36;101119.38;5004960;28;20442;-55
2022/01/11 06:02:46;;;;;;;19.08;7.45;;;;;;;8.45;82.92;101134.84;5003234;28;20042;-57
2022/01/11 06:05:15;;;;;;;16.25;6.45;;;;;;;8.45;82.45;101134.84;5000034;28;20232;-54
2022/01/11 06:07:42;;;;;;;15.63;6.97;;;;;;;8.47;82.44;101140.06;4999153;28;20810;-57
2022/01/11 06:10:09;;;;;;;16.88;6.97;;;;;;;8.48;82.61;101132.34;4999832;28;20049;-56
2022/01/11 06:12:36;;;;;;;19.10;7.63;;;;;;;8.49;83.21;101139.25;5003023;28;20039;-56
2022/01/11 06:15:03;;;;;;;17.30;7.32;;;;;;;8.51;82.08;101139.28;5002222;28;20065;-55
2022/01/11 06:17:30;;;;;;;15.95;6.40;;;;;;;8.52;82.23;101145.34;4998237;28;20136;-57
2022/01/11 06:19:57;;;;;;;14.75;6.30;;;;;;;8.52;82.91;101145.34;5003414;28;20053;-57
2022/01/11 06:22:24;;;;;;;12.23;5.22;;;;;;;8.53;82.21;101152.25;4999737;28;20056;-54
2022/01/11 06:24:51;;;;;;;10.07;4.95;;;;;;;8.54;82.10;101154.91;5002850;28;20110;-55
2022/01/11 06:27:18;;;;;;;11.80;4.75;;;;;;;8.55;82.08;101150.63;5001085;28;20046;-54
2022/01/11 06:29:45;;;;;;;13.52;5.60;;;;;;;8.55;82.66;101155.78;4999833;28;20049;-54
2022/01/11 06:32:11;;;;;;;12.40;4.95;;;;;;;8.56;82.76;101162.69;5000756;28;20120;-52
2022/01/11 06:34:38;;;;;;;14.43;5.30;;;;;;;8.54;82.39;101170.41;4998541;28;20188;-58
2022/01/11 06:37:05;;;;;;;8.77;4.22;;;;;;;8.56;83.21;101173.00;5000892;28;20108;-53
2022/01/11 06:39:36;;;;;;;10.82;4.35;;;;;;;8.53;82.46;101173.81;4999336;28;20050;-57
2022/01/11 06:42:04;;;;;;;9.65;4.18;;;;;;;8.54;82.59;101177.28;5006949;28;20045;-54
2022/01/11 06:44:31;;;;;;;9.85;4.45;;;;;;;8.51;83.04;101177.19;5000884;28;20057;-58
2022/01/11 06:46:58;;;;;;;7.78;3.00;;;;;;;8.52;82.87;101187.53;5003678;28;20363;-57
2022/01/11 06:49:25;;;;;;;10.30;4.05;;;;;;;8.53;82.36;101189.31;4998813;28;20053;-58
2022/01/11 06:51:51;;;;;;;11.63;5.55;;;;;;;8.53;82.80;101190.97;5003464;28;20124;-55
2022/01/11 06:54:18;;;;;;;10.93;4.88;;;;;;;8.54;82.67;101192.78;5003432;28;20050;-54
2022/01/11 06:56:45;;;;;;;8.73;4.57;;;;;;;8.56;82.73;101193.66;4999238;28;20058;-56
2022/01/11 06:59:11;;;;;;;11.18;2.90;;;;;;;8.56;82.68;101198.84;5007510;28;20429;-59
2022/01/11 07:01:38;;;;;;;9.60;4.53;;;;;;;8.56;82.18;101198.84;5000604;28;20148;-59
2022/01/11 07:04:05;;;;;;;10.30;4.07;;;;;;;8.56;82.18;101198.84;5004036;28;20076;-57
2022/01/11 07:06:32;;;;;;;11.35;2.85;;;;;;;8.57;82.55;101203.16;5001373;28;20692;-60
2022/01/11 07:08:58;;;;;;;12.52;3.97;;;;;;;8.56;82.44;101198.84;5002039;28;20049;-56
2022/01/11 07:11:25;;;;;;;8.63;4.20;;;;;;;8.57;82.37;101208.31;5004059;28;20058;-56
2022/01/11 07:13:51;;;;;;;7.97;3.90;;;;;;;8.57;82.83;101203.16;5004542;28;20107;-55
2022/01/11 07:16:18;;;;;;;8.65;3.97;;;;;;;8.58;82.96;101204.94;5002125;28;20081;-58
2022/01/11 07:18:46;;;;;;;10.18;3.80;;;;;;;8.57;82.61;101210.91;4997555;28;20046;-58
2022/01/11 07:21:13;;;;;;;9.80;4.75;;;;;;;8.58;81.95;101223.00;5006008;28;20050;-56
2022/01/11 07:23:40;;;;;;;10.52;4.57;;;;;;;8.58;82.83;101228.16;5002251;28;20054;-58
2022/01/11 07:26:07;;;;;;;11.20;4.63;;;;;;;8.59;82.70;101224.75;5007117;28;20054;-55
2022/01/11 07:28:35;;;;;;;12.98;4.40;;;;;;;8.60;82.24;101236.81;5002831;28;20053;-57
2022/01/11 07:31:03;;;;;;;12.13;5.38;;;;;;;8.61;82.02;101233.38;5009613;28;20564;-55
2022/01/11 07:33:29;;;;;;;14.20;5.03;;;;;;;8.60;82.19;101242.88;5002091;28;20081;-57
2022/01/11 07:35:56;;;;;;;13.25;4.90;;;;;;;8.61;82.72;101248.88;5001591;28;20057;-58
2022/01/11 07:38:23;;;;;;;13.05;4.65;;;;;;;8.61;82.31;101257.50;5000729;28;20047;-57
2022/01/11 07:40:49;;;;;;;12.85;5.45;;;;;;;8.62;82.82;101258.41;5003357;28;20096;-57
2022/01/11 07:43:16;;;;;;;12.77;5.53;;;;;;;8.65;82.30;101266.19;5006930;28;20108;-55
2022/01/11 07:45:42;;;;;;;10.70;4.95;;;;;;;8.66;82.31;101267.09;5002785;28;20054;-54
2022/01/11 07:48:09;;;;;;;9.68;4.60;;;;;;;8.66;82.17;101272.25;5000991;28;20046;-58
2022/01/11 07:50:36;;;;;;;12.00;4.18;;;;;;;8.67;81.91;101274.00;5004404;28;20455;-54
2022/01/11 07:53:05;;;;;;;12.77;4.30;;;;;;;8.67;82.20;101274.00;5002761;28;20053;-56
2022/01/11 07:55:33;;;;;;;9.73;4.18;;;;;;;8.66;81.76;101278.31;5002814;28;20053;-56
2022/01/11 07:58:00;;;;;;;9.27;4.13;;;;;;;8.67;82.34;101279.16;5004712;28;20072;-58
2022/01/11 08:00:27;;;;;;;10.45;4.03;;;;;;;8.67;82.61;101279.16;5001037;28;20050;-55
2022/01/11 08:02:53;;;;;;;8.50;3.60;;;;;;;8.66;82.06;101288.63;5006009;28;20050;-56
2022/01/11 08:05:21;;;;;;;9.07;3.58;;;;;;;8.67;82.25;101292.94;5002577;28;20056;-58
2022/01/11 08:07:48;;;;;;;7.50;3.35;;;;;;;8.67;82.37;101298.13;5005202;28;20074;-60
2022/01/11 08:10:18;;;;;;;10.02;3.78;;;;;;;8.68;81.96;101307.59;5004050;28;20049;-58
2022/01/11 08:12:50;;;;;;;8.48;3.60;;;;;;;8.67;81.87;101303.28;5005956;28;20050;-53
2022/01/11 08:15:16;;;;;;;7.57;3.33;;;;;;;8.68;81.72;101312.78;4998626;28;20049;-59
2022/01/11 08:17:43;;;;;;;7.63;3.13;;;;;;;8.69;82.20;101319.72;5000708;28;20072;-53
2022/01/11 08:20:10;;;;;;;7.80;3.45;;;;;;;8.70;82.66;101325.72;5001429;28;20132;-54
2022/01/11 08:22:37;;;;;;;9.68;3.10;;;;;;;8.70;82.38;101331.78;5002437;28;20046;-57
2022/01/11 08:25:04;;;;;;;8.50;3.40;;;;;;;8.71;82.17;101338.69;5003918;28;20052;-55
2022/01/11 08:27:33;;;;;;;9.50;3.95;;;;;;;8.72;81.70;101340.44;4999293;28;20104;-54
2022/01/11 08:30:01;;;;;;;8.18;2.97;;;;;;;8.74;82.27;101333.59;5000621;28;20057;-58
2022/01/11 08:32:28;;;;;;;7.47;3.05;;;;;;;8.76;81.99;101341.41;5001403;28;20065;-50
2022/01/11 08:34:54;;;;;;;7.07;3.22;;;;;;;8.77;82.07;101344.84;5002130;28;20567;-57
2022/01/11 08:37:21;;;;;;;7.82;3.58;;;;;;;8.79;81.89;101350.94;4999857;28;20061;-62
2022/01/11 08:39:48;;;;;;;7.10;3.42;;;;;;;8.80;81.80;101352.66;5002889;28;20045;-55
2022/01/11 08:42:15;;;;;;;9.05;3.65;;;;;;;8.79;82.05;101341.47;5005417;28;20716;-57
2022/01/11 08:44:46;;;;;;;8.07;3.58;;;;;;;8.82;81.82;101356.19;5000719;28;20058;-59
2022/01/11 08:47:14;;;;;;;10.57;3.92;;;;;;;8.84;81.67;101367.41;5006141;28;20071;-57
2022/01/11 08:49:41;;;;;;;8.90;4.03;;;;;;;8.84;81.75;101364.81;4998938;28;20049;-55
2022/01/11 08:52:09;;;;;;;13.20;4.25;;;;;;;8.86;82.11;101368.34;5006800;28;20092;-56
2022/01/11 08:54:36;;;;;;;11.55;4.40;;;;;;;8.89;82.11;101367.53;4999696;28;20053;-54
2022/01/11 08:57:03;;;;;;;13.00;4.25;;;;;;;8.91;81.55;101368.47;5004148;28;20054;-58
2022/01/11 08:59:30;;;;;;;14.20;3.38;;;;;;;8.93;81.87;101370.25;5002123;28;20049;-57
2022/01/11 09:02:01;;;;;;;11.07;3.88;;;;;;;8.96;81.89;101365.16;5001787;28;20125;-56
2022/01/11 09:04:28;;;;;;;15.73;4.13;;;;;;;9.01;82.21;101365.25;5003600;28;20729;-54
2022/01/11 09:06:57;;;;;;;15.30;4.55;;;;;;;9.02;82.09;101368.72;5003291;28;20748;-57
2022/01/11 09:09:26;;;;;;;16.88;5.00;;;;;;;9.04;81.51;101369.63;5001579;28;20120;-56
2022/01/11 09:11:53;;;;;;;15.35;5.30;;;;;;;9.06;81.29;101375.72;5002001;28;20050;-56
2022/01/11 09:14:20;;;;;;;18.38;5.13;;;;;;;9.08;81.44;101384.38;4996109;28;20046;-58
2022/01/11 09:16:47;;;;;;;19.75;4.85;;;;;;;9.10;81.56;101390.47;5001516;28;20053;-58
2022/01/11 09:19:15;;;;;;;15.30;4.50;;;;;;;9.10;81.12;101387.88;5003020;28;20498;-58
2022/01/11 09:21:42;;;;;;;16.08;6.40;;;;;;;9.10;81.60;101393.94;5002502;28;20075;-54
2022/01/11 09:24:10;;;;;;;18.42;6.22;;;;;;;9.12;81.74;101391.41;5000519;28;20069;-56
2022/01/11 09:26:39;;;;;;;17.70;5.35;;;;;;;9.15;81.17;101403.50;5006099;28;20049;-58
2022/01/11 09:29:05;;;;;;;14.68;4.85;;;;;;;9.16;81.93;101400.97;4998405;28;20050;-58
2022/01/11 09:31:32;;;;;;;12.32;4.82;;;;;;;9.17;81.86;101402.72;5002637;28;20054;-56
2022/01/11 09:33:59;;;;;;;10.43;4.55;;;;;;;9.19;81.73;101397.59;5001969;28;20054;-56
2022/01/11 09:36:28;;;;;;;13.82;5.30;;;;;;;9.21;81.50;101416.56;5003476;28;20050;-55
2022/01/11 09:38:55;;;;;;;14.40;5.25;;;;;;;9.23;81.55;101404.56;5004049;28;20049;-59
2022/01/11 09:41:22;;;;;;;13.15;5.35;;;;;;;9.23;81.75;101418.34;4999836;28;20770;-58
2022/01/11 09:43:49;;;;;;;15.50;5.35;;;;;;;9.25;81.14;101414.13;5003607;28;20049;-55
2022/01/11 09:46:15;;;;;;;12.75;5.13;;;;;;;9.27;81.76;101416.75;4997122;28;20093;-55
2022/01/11 09:48:44;;;;;;;17.02;5.38;;;;;;;9.30;81.64;101410.75;5005287;28;20049;-57
2022/01/11 09:51:11;;;;;;;14.50;5.90;;;;;;;9.33;81.74;101411.72;5001494;28;20143;-55
2022/01/11 09:53:38;;;;;;;17.10;7.13;;;;;;;9.38;81.12;101414.41;4999353;28;20044;-59
2022/01/11 09:56:05;;;;;;;14.10;4.45;;;;;;;9.42;81.74;101423.13;4995505;28;20054;-58
2022/01/11 09:58:33;;;;;;;16.92;5.90;;;;;;;9.45;81.52;101421.47;5000161;28;20117;-57
2022/01/11 10:00:59;;;;;;;19.85;5.85;;;;;;;9.50;81.39;101435.38;4996420;28;20597;-54
2022/01/11 10:03:26;;;;;;;15.25;5.43;;;;;;;9.54;81.71;101436.34;4993754;28;20104;-56
2022/01/11 10:05:53;;;;;;;17.65;5.68;;;;;;;9.59;81.81;101439.06;5006001;28;20046;-57
2022/01/11 10:08:25;;;;;;;17.40;5.57;;;;;;;9.63;81.32;101444.31;5001299;28;20199;-54
2022/01/11 10:10:53;;;;;;;15.30;5.63;;;;;;;9.65;80.87;101436.59;5002191;28;20185;-54
2022/01/11 10:13:32;;;;;;;14.52;5.95;;;;;;;9.67;81.46;101441.81;5000067;28;20051;-60
2022/01/11 10:16:23;;;;;;;15.50;5.13;;;;;;;9.65;81.11;101449.53;4997517;28;20419;-53
2022/01/11 10:18:52;;;;;;;11.10;5.15;;;;;;;9.71;81.03;101453.97;5004828;28;20133;-55
2022/01/11 10:21:40;;;;;;;11.48;4.30;;;;;;;9.63;81.47;101456.41;5003211;28;20429;-55
2022/01/11 10:24:44;;;;;;;11.13;4.57;;;;;;;9.60;80.93;101466.66;5002292;28;20054;-58
2022/01/11 10:27:16;;;;;;;12.75;4.80;;;;;;;9.61;81.27;101473.56;5004402;28;20065;-58
2022/01/11 10:29:46;;;;;;;14.10;5.43;;;;;;;9.57;81.27;101483.00;4999812;28;20058;-58
2022/01/11 10:32:20;;;;;;;10.70;4.95;;;;;;;9.58;81.02;101486.44;4997196;28;20049;-55
2022/01/11 10:34:51;;;;;;;14.60;5.78;;;;;;;9.58;81.22;101481.25;5002585;28;20049;-58
2022/01/11 10:37:30;;;;;;;10.25;4.55;;;;;;;9.55;81.16;101484.66;4999519;28;20053;-56
2022/01/11 10:40:02;;;;;;;12.80;4.43;;;;;;;9.61;81.16;101489.09;4999912;28;20437;-57
2022/01/11 10:42:33;;;;;;;14.57;5.30;;;;;;;9.63;81.03;101492.63;5000532;28;20054;-59
2022/01/11 10:45:04;;;;;;;12.65;5.07;;;;;;;9.67;80.57;101486.69;5000699;28;20081;-60
2022/01/11 10:47:34;;;;;;;10.52;4.63;;;;;;;9.70;80.94;101489.34;4998687;28;20061;-58
2022/01/11 10:50:06;;;;;;;11.82;5.28;;;;;;;9.73;80.90;101491.97;4999268;28;20045;-57
2022/01/11 10:52:34;;;;;;;16.30;5.82;;;;;;;9.77;81.05;101485.19;4994784;28;20506;-54
2022/01/11 10:55:05;;;;;;;12.13;5.07;;;;;;;9.81;81.14;101491.28;4995301;28;20068;-56
2022/01/11 10:57:33;;;;;;;;;;;;;;;9.79;80.77;101493.00;5000562;28;20100;-58
2022/01/11 11:00:12;;;;;;;10.68;5.10;;;;;;;9.89;80.73;101503.59;5004049;28;19925;-56
2022/01/11 11:02:40;;;;;;;10.88;5.90;;;;;;;9.98;80.77;101500.34;5007901;28;20050;-54
2022/01/11 11:05:17;;;;;;;9.65;4.13;;;;;;;10.02;80.63;101501.28;5006321;28;20042;-60
2022/01/11 11:07:55;;;;;;;7.75;3.92;;;;;;;10.09;79.80;101504.88;5004133;28;20090;-55
2022/01/11 11:10:58;;;;;;;9.93;4.40;;;;;;;10.13;80.24;101504.09;5008541;28;20088;-57
2022/01/11 11:13:29;;;;;;;8.15;4.55;;;;;;;10.16;79.78;101506.75;5000678;28;20088;-57
2022/01/11 11:15:59;;;;;;;15.88;4.32;;;;;;;10.16;79.42;101511.94;5008013;28;20046;-55
2022/01/11 11:18:33;;;;;;;8.00;3.92;;;;;;;10.15;79.76;101517.97;5002750;28;20494;-57
2022/01/11 11:21:21;;;;;;;8.30;3.35;;;;;;;10.08;78.96;101521.25;5006288;28;20490;-56
2022/01/11 11:23:52;;;;;;;7.43;3.55;;;;;;;10.11;79.46;101510.97;5005542;28;20042;-55
2022/01/11 11:26:21;;;;;;;7.50;4.15;;;;;;;10.10;79.77;101510.09;5003956;28;20654;-58
2022/01/11 11:28:47;;;;;;;8.93;3.97;;;;;;;10.09;79.24;101513.53;5007229;28;20058;-56
2022/01/11 11:31:15;;;;;;;8.85;3.70;;;;;;;10.12;79.51;101512.72;5006672;28;20041;-58
2022/01/11 11:33:42;;;;;;;7.97;3.88;;;;;;;10.15;79.09;101512.78;5006238;28;20050;-58